createdAt,value
2022-12-26T00:00:43.771Z,0.00
2022-12-26T00:01:43.595Z,0.00
2022-12-26T00:02:43.701Z,0.00
2022-12-26T00:03:43.797Z,0.00
2022-12-26T00:04:50.994Z,0.00
2022-12-26T00:05:44.576Z,0.00
2022-12-26T00:06:43.569Z,0.00
2022-12-26T00:07:43.526Z,0.00
2022-12-26T00:08:43.530Z,0.00
2022-12-26T00:09:43.511Z,0.00
2022-12-26T00:10:43.511Z,0.00
2022-12-26T00:11:43.497Z,0.00
2022-12-26T00:12:43.526Z,0.00
2022-12-26T00:13:43.461Z,0.00
2022-12-26T00:14:43.453Z,0.00
2022-12-26T00:15:43.441Z,0.00
2022-12-26T00:16:43.448Z,0.00
2022-12-26T00:17:43.428Z,0.00
2022-12-26T00:18:43.448Z,0.00
2022-12-26T00:19:43.501Z,0.00
2022-12-26T00:20:43.389Z,0.00
2022-12-26T00:21:43.384Z,0.00
2022-12-26T00:22:43.374Z,0.00
2022-12-26T00:23:43.379Z,0.00
2022-12-26T00:24:43.380Z,0.00
2022-12-26T00:25:43.338Z,0.00
2022-12-26T00:26:43.329Z,0.00
2022-12-26T00:27:43.310Z,0.00
2022-12-26T00:28:43.320Z,0.00
2022-12-26T00:29:43.407Z,0.00
2022-12-26T00:30:43.331Z,0.00
2022-12-26T00:31:43.357Z,0.00
2022-12-26T00:32:43.263Z,0.00
2022-12-26T00:33:43.253Z,0.00
2022-12-26T00:34:43.252Z,0.00
2022-12-26T00:35:43.265Z,0.00
2022-12-26T00:36:43.254Z,0.00
2022-12-26T00:37:43.204Z,0.00
2022-12-26T00:38:43.198Z,0.00
2022-12-26T00:39:43.181Z,0.00
2022-12-26T00:40:43.180Z,0.00
2022-12-26T00:41:43.264Z,0.00
2022-12-26T00:42:43.205Z,0.00
2022-12-26T00:43:43.140Z,0.00
2022-12-26T00:44:43.132Z,0.00
2022-12-26T00:45:43.138Z,0.00
2022-12-26T00:46:43.159Z,0.00
2022-12-26T00:47:43.106Z,0.00
2022-12-26T00:48:43.144Z,0.00
2022-12-26T00:50:14.349Z,0.00
2022-12-26T00:50:44.077Z,0.00
2022-12-26T00:51:43.073Z,0.00
2022-12-26T00:52:43.069Z,0.00
2022-12-26T00:53:43.084Z,0.00
2022-12-26T00:54:43.071Z,0.00
2022-12-26T00:55:43.015Z,0.00
2022-12-26T00:56:43.005Z,0.00
2022-12-26T00:57:42.995Z,0.00
2022-12-26T00:58:42.987Z,0.00
2022-12-26T00:59:42.970Z,0.00
2022-12-26T01:00:43.115Z,0.00
2022-12-26T01:01:43.287Z,0.00
2022-12-26T01:02:43.053Z,0.00
2022-12-26T01:03:42.926Z,0.00
2022-12-26T01:04:42.928Z,0.00
2022-12-26T01:05:42.940Z,0.00
2022-12-26T01:06:42.943Z,0.00
2022-12-26T01:08:19.500Z,0.00
2022-12-26T01:08:43.874Z,0.00
2022-12-26T01:09:42.861Z,0.00
2022-12-26T01:10:42.854Z,0.00
2022-12-26T01:11:42.851Z,0.00
2022-12-26T01:12:42.867Z,0.00
2022-12-26T01:13:42.816Z,0.00
2022-12-26T01:14:42.808Z,0.00
2022-12-26T01:15:42.802Z,0.00
2022-12-26T01:16:42.981Z,0.00
2022-12-26T01:17:42.786Z,0.00
2022-12-26T01:18:42.797Z,0.00
2022-12-26T01:19:42.769Z,0.00
2022-12-26T01:20:42.761Z,0.00
2022-12-26T01:21:42.736Z,0.00
2022-12-26T01:22:42.736Z,0.00
2022-12-26T01:23:42.736Z,0.00
2022-12-26T01:24:42.735Z,0.00
2022-12-26T01:26:17.504Z,0.00
2022-12-26T01:26:43.690Z,0.00
2022-12-26T01:27:42.672Z,0.00
2022-12-26T01:28:42.659Z,0.00
2022-12-26T01:29:42.648Z,0.00
2022-12-26T01:30:42.683Z,0.00
2022-12-26T01:31:42.646Z,0.00
2022-12-26T01:32:42.638Z,0.00
2022-12-26T01:33:42.608Z,0.00
2022-12-26T01:34:42.591Z,0.00
2022-12-26T01:35:42.584Z,0.00
2022-12-26T01:36:42.599Z,0.00
2022-12-26T01:37:42.568Z,0.00
2022-12-26T01:38:42.562Z,0.00
2022-12-26T01:39:42.566Z,0.00
2022-12-26T01:40:42.528Z,0.00
2022-12-26T01:41:42.526Z,0.00
2022-12-26T01:42:42.555Z,0.00
2022-12-26T01:43:42.508Z,0.00
2022-12-26T01:44:42.498Z,0.00
2022-12-26T01:45:42.650Z,0.00
2022-12-26T01:46:42.473Z,0.00
2022-12-26T01:47:42.461Z,0.00
2022-12-26T01:48:42.472Z,0.00
2022-12-26T01:49:42.448Z,0.00
2022-12-26T01:50:42.420Z,0.00
2022-12-26T01:51:42.418Z,0.00
2022-12-26T01:52:42.406Z,0.00
2022-12-26T01:53:42.391Z,0.00
2022-12-26T01:54:43.146Z,0.00
2022-12-26T01:55:42.413Z,0.00
2022-12-26T01:56:42.356Z,0.00
2022-12-26T01:57:42.348Z,0.00
2022-12-26T01:58:42.335Z,0.00
2022-12-26T01:59:42.325Z,0.00
2022-12-26T02:00:42.382Z,0.00
2022-12-26T02:01:42.423Z,0.00
2022-12-26T02:02:42.400Z,0.00
2022-12-26T02:03:42.285Z,0.00
2022-12-26T02:04:42.273Z,0.00
2022-12-26T02:05:42.262Z,0.00
2022-12-26T02:06:42.309Z,0.00
2022-12-26T02:07:42.238Z,0.00
2022-12-26T02:08:42.226Z,0.00
2022-12-26T02:09:42.218Z,0.00
2022-12-26T02:10:42.204Z,0.00
2022-12-26T02:11:42.228Z,0.00
2022-12-26T02:12:42.263Z,0.00
2022-12-26T02:13:42.174Z,0.00
2022-12-26T02:14:42.169Z,0.00
2022-12-26T02:15:42.156Z,0.00
2022-12-26T02:16:42.234Z,0.00
2022-12-26T02:17:42.141Z,0.00
2022-12-26T02:18:42.178Z,0.00
2022-12-26T02:19:42.109Z,0.00
2022-12-26T02:20:42.118Z,0.00
2022-12-26T02:21:42.099Z,0.00
2022-12-26T02:22:42.096Z,0.00
2022-12-26T02:23:42.066Z,0.00
2022-12-26T02:24:42.098Z,0.00
2022-12-26T02:25:42.046Z,0.00
2022-12-26T02:26:42.034Z,0.00
2022-12-26T02:27:42.064Z,0.00
2022-12-26T02:28:42.031Z,0.00
2022-12-26T02:29:42.006Z,0.00
2022-12-26T02:30:42.046Z,0.00
2022-12-26T02:31:42.024Z,0.00
2022-12-26T02:32:41.965Z,0.00
2022-12-26T02:33:41.958Z,0.00
2022-12-26T02:34:41.982Z,0.00
2022-12-26T02:35:41.940Z,0.00
2022-12-26T02:36:41.975Z,0.00
2022-12-26T02:37:41.914Z,0.00
2022-12-26T02:38:41.912Z,0.00
2022-12-26T02:39:43.638Z,0.00
2022-12-26T02:40:41.980Z,0.00
2022-12-26T02:41:41.894Z,0.00
2022-12-26T02:42:41.919Z,0.00
2022-12-26T02:43:41.869Z,0.00
2022-12-26T02:44:41.851Z,0.00
2022-12-26T02:45:41.880Z,0.00
2022-12-26T02:46:41.924Z,0.00
2022-12-26T02:47:41.810Z,0.00
2022-12-26T02:48:41.834Z,0.00
2022-12-26T02:49:41.785Z,0.00
2022-12-26T02:50:41.772Z,0.00
2022-12-26T02:51:41.766Z,0.00
2022-12-26T02:52:41.764Z,0.00
2022-12-26T02:53:41.748Z,0.00
2022-12-26T02:54:41.757Z,0.00
2022-12-26T02:55:41.721Z,0.00
2022-12-26T02:56:41.708Z,0.00
2022-12-26T02:57:41.701Z,0.00
2022-12-26T02:58:41.713Z,0.00
2022-12-26T02:59:56.121Z,0.00
2022-12-26T03:00:42.697Z,0.00
2022-12-26T03:01:41.789Z,0.00
2022-12-26T03:02:41.811Z,0.00
2022-12-26T03:03:41.641Z,0.00
2022-12-26T03:04:41.640Z,0.00
2022-12-26T03:05:41.619Z,0.00
2022-12-26T03:06:41.630Z,0.00
2022-12-26T03:07:41.597Z,0.00
2022-12-26T03:08:41.599Z,0.00
2022-12-26T03:09:41.577Z,0.00
2022-12-26T03:10:41.558Z,0.00
2022-12-26T03:11:41.550Z,0.00
2022-12-26T03:12:41.595Z,0.00
2022-12-26T03:13:41.563Z,0.00
2022-12-26T03:14:41.535Z,0.00
2022-12-26T03:15:41.532Z,0.00
2022-12-26T03:16:41.631Z,0.00
2022-12-26T03:17:41.488Z,0.00
2022-12-26T03:18:57.054Z,0.00
2022-12-26T03:19:42.475Z,0.00
2022-12-26T03:20:41.457Z,0.00
2022-12-26T03:21:41.450Z,0.00
2022-12-26T03:22:41.433Z,0.00
2022-12-26T03:23:41.422Z,0.00
2022-12-26T03:24:41.471Z,0.00
2022-12-26T03:25:41.399Z,0.00
2022-12-26T03:26:41.402Z,0.00
2022-12-26T03:27:41.411Z,0.00
2022-12-26T03:28:41.366Z,0.00
2022-12-26T03:29:41.363Z,0.00
2022-12-26T03:30:41.397Z,0.00
2022-12-26T03:31:41.368Z,0.00
2022-12-26T03:32:41.326Z,0.00
2022-12-26T03:33:41.310Z,0.00
2022-12-26T03:34:41.314Z,0.00
2022-12-26T03:35:41.301Z,0.00
2022-12-26T03:36:41.310Z,0.00
2022-12-26T03:37:49.287Z,0.00
2022-12-26T03:38:42.253Z,0.00
2022-12-26T03:39:41.249Z,0.00
2022-12-26T03:40:41.234Z,0.00
2022-12-26T03:41:41.269Z,0.00
2022-12-26T03:42:41.264Z,0.00
2022-12-26T03:43:41.246Z,0.00
2022-12-26T03:44:41.199Z,0.00
2022-12-26T03:45:41.223Z,0.00
2022-12-26T03:46:41.256Z,0.00
2022-12-26T03:47:41.185Z,0.00
2022-12-26T03:48:41.237Z,0.00
2022-12-26T03:49:41.195Z,0.00
2022-12-26T03:50:41.126Z,0.00
2022-12-26T03:51:41.122Z,0.00
2022-12-26T03:52:41.112Z,0.00
2022-12-26T03:53:41.115Z,0.00
2022-12-26T03:54:41.105Z,0.00
2022-12-26T03:55:41.076Z,0.00
2022-12-26T03:56:41.085Z,0.00
2022-12-26T03:57:41.066Z,0.00
2022-12-26T03:58:41.052Z,0.00
2022-12-26T03:59:41.076Z,0.00
2022-12-26T04:00:41.064Z,0.00
2022-12-26T04:01:41.074Z,0.00
2022-12-26T04:02:41.003Z,0.00
2022-12-26T04:03:41.123Z,0.00
2022-12-26T04:04:40.990Z,0.00
2022-12-26T04:05:40.982Z,0.00
2022-12-26T04:06:40.982Z,0.00
2022-12-26T04:07:56.382Z,0.00
2022-12-26T04:08:41.942Z,0.00
2022-12-26T04:09:40.923Z,0.00
2022-12-26T04:10:40.915Z,0.00
2022-12-26T04:11:40.903Z,0.00
2022-12-26T04:12:40.927Z,0.00
2022-12-26T04:13:40.882Z,0.00
2022-12-26T04:14:40.878Z,0.00
2022-12-26T04:15:40.935Z,0.00
2022-12-26T04:16:40.852Z,0.00
2022-12-26T04:17:40.836Z,0.00
2022-12-26T04:18:40.864Z,0.00
2022-12-26T04:19:40.834Z,0.00
2022-12-26T04:20:40.819Z,0.00
2022-12-26T04:21:40.797Z,0.00
2022-12-26T04:22:40.799Z,0.00
2022-12-26T04:23:40.783Z,0.00
2022-12-26T04:24:40.809Z,0.00
2022-12-26T04:25:49.397Z,0.00
2022-12-26T04:26:41.746Z,0.00
2022-12-26T04:27:40.735Z,0.00
2022-12-26T04:28:40.723Z,0.00
2022-12-26T04:29:40.707Z,0.00
2022-12-26T04:30:40.766Z,0.00
2022-12-26T04:31:40.757Z,0.00
2022-12-26T04:32:40.672Z,0.00
2022-12-26T04:33:40.664Z,0.00
2022-12-26T04:34:40.662Z,0.00
2022-12-26T04:35:40.669Z,0.00
2022-12-26T04:36:40.651Z,0.00
2022-12-26T04:37:40.644Z,0.00
2022-12-26T04:38:40.649Z,0.00
2022-12-26T04:39:40.607Z,0.00
2022-12-26T04:40:40.602Z,0.00
2022-12-26T04:41:40.593Z,0.00
2022-12-26T04:42:40.610Z,0.00
2022-12-26T04:43:48.671Z,0.00
2022-12-26T04:44:41.551Z,0.00
2022-12-26T04:45:40.538Z,0.00
2022-12-26T04:46:40.625Z,0.00
2022-12-26T04:47:40.512Z,0.00
2022-12-26T04:48:40.542Z,0.00
2022-12-26T04:49:40.510Z,0.00
2022-12-26T04:50:40.480Z,0.00
2022-12-26T04:51:40.487Z,0.00
2022-12-26T04:52:40.458Z,0.00
2022-12-26T04:53:40.457Z,0.00
2022-12-26T04:54:40.452Z,0.00
2022-12-26T04:55:40.446Z,0.00
2022-12-26T04:56:40.410Z,0.00
2022-12-26T04:57:40.407Z,0.00
2022-12-26T04:58:40.427Z,0.00
2022-12-26T04:59:40.392Z,0.00
2022-12-26T05:00:40.399Z,0.00
2022-12-26T05:01:40.516Z,0.00
2022-12-26T05:02:40.452Z,0.00
2022-12-26T05:03:40.386Z,0.00
2022-12-26T05:04:40.342Z,0.00
2022-12-26T05:05:40.320Z,0.00
2022-12-26T05:06:40.342Z,0.00
2022-12-26T05:07:40.316Z,0.00
2022-12-26T05:08:40.295Z,0.00
2022-12-26T05:09:40.269Z,0.00
2022-12-26T05:10:40.282Z,0.00
2022-12-26T05:11:40.253Z,0.00
2022-12-26T05:12:40.272Z,0.00
2022-12-26T05:13:40.233Z,0.00
2022-12-26T05:14:40.224Z,0.00
2022-12-26T05:15:40.227Z,0.00
2022-12-26T05:16:40.215Z,0.00
2022-12-26T05:17:40.196Z,0.00
2022-12-26T05:18:40.270Z,0.00
2022-12-26T05:19:40.178Z,0.00
2022-12-26T05:20:40.171Z,0.00
2022-12-26T05:21:40.148Z,0.00
2022-12-26T05:22:40.146Z,0.00
2022-12-26T05:23:40.138Z,0.00
2022-12-26T05:24:40.110Z,0.00
2022-12-26T05:25:40.128Z,0.00
2022-12-26T05:26:40.089Z,0.00
2022-12-26T05:27:40.076Z,0.00
2022-12-26T05:28:40.120Z,0.00
2022-12-26T05:29:40.069Z,0.00
2022-12-26T05:30:40.047Z,0.00
2022-12-26T05:31:40.169Z,0.00
2022-12-26T05:32:40.033Z,0.00
2022-12-26T05:33:40.020Z,0.00
2022-12-26T05:34:40.020Z,0.00
2022-12-26T05:35:40.001Z,0.00
2022-12-26T05:36:39.994Z,0.00
2022-12-26T05:37:40.002Z,0.00
2022-12-26T05:38:39.969Z,0.00
2022-12-26T05:39:39.969Z,0.00
2022-12-26T05:40:39.951Z,0.00
2022-12-26T05:41:39.929Z,0.00
2022-12-26T05:42:39.925Z,0.00
2022-12-26T05:43:39.941Z,0.00
2022-12-26T05:44:39.904Z,0.00
2022-12-26T05:45:39.896Z,0.00
2022-12-26T05:46:40.011Z,0.00
2022-12-26T05:47:39.882Z,0.00
2022-12-26T05:48:39.855Z,0.00
2022-12-26T05:49:39.889Z,0.00
2022-12-26T05:50:39.828Z,0.00
2022-12-26T05:51:39.824Z,0.00
2022-12-26T05:52:39.812Z,0.00
2022-12-26T05:53:39.818Z,0.00
2022-12-26T05:54:39.786Z,0.00
2022-12-26T05:55:39.820Z,0.00
2022-12-26T05:56:44.225Z,0.00
2022-12-26T05:57:40.756Z,0.00
2022-12-26T05:58:39.775Z,0.00
2022-12-26T05:59:39.740Z,0.00
2022-12-26T06:00:39.726Z,0.00
2022-12-26T06:01:39.891Z,0.00
2022-12-26T06:02:39.827Z,0.00
2022-12-26T06:03:39.897Z,0.00
2022-12-26T06:04:39.691Z,0.00
2022-12-26T06:05:39.674Z,0.00
2022-12-26T06:06:39.662Z,0.00
2022-12-26T06:07:39.692Z,0.00
2022-12-26T06:08:39.643Z,0.00
2022-12-26T06:09:39.735Z,0.00
2022-12-26T06:10:39.614Z,0.00
2022-12-26T06:11:46.833Z,0.00
2022-12-26T06:12:40.591Z,0.00
2022-12-26T06:13:39.647Z,0.00
2022-12-26T06:14:39.571Z,0.00
2022-12-26T06:15:39.584Z,0.00
2022-12-26T06:16:39.685Z,0.00
2022-12-26T06:17:39.540Z,0.00
2022-12-26T06:18:39.527Z,0.00
2022-12-26T06:19:46.373Z,0.00
2022-12-26T06:20:40.535Z,0.00
2022-12-26T06:21:39.511Z,0.00
2022-12-26T06:22:39.519Z,0.00
2022-12-26T06:23:39.494Z,0.00
2022-12-26T06:24:39.465Z,4.00
2022-12-26T06:25:39.500Z,4.00
2022-12-26T06:26:39.441Z,0.00
2022-12-26T06:27:39.480Z,0.00
2022-12-26T06:28:39.423Z,4.00
2022-12-26T06:29:39.412Z,4.00
2022-12-26T06:30:39.397Z,4.00
2022-12-26T06:31:39.523Z,4.00
2022-12-26T06:32:39.376Z,4.00
2022-12-26T06:33:39.400Z,8.00
2022-12-26T06:34:39.370Z,8.00
2022-12-26T06:35:39.355Z,8.00
2022-12-26T06:36:39.336Z,12.00
2022-12-26T06:37:39.364Z,16.00
2022-12-26T06:38:39.312Z,16.00
2022-12-26T06:39:39.319Z,16.00
2022-12-26T06:40:39.288Z,20.00
2022-12-26T06:41:39.282Z,24.00
2022-12-26T06:42:39.271Z,32.00
2022-12-26T06:43:39.309Z,40.00
2022-12-26T06:44:39.265Z,48.00
2022-12-26T06:45:39.242Z,56.00
2022-12-26T06:46:39.241Z,68.00
2022-12-26T06:47:39.230Z,80.00
2022-12-26T06:48:39.227Z,96.00
2022-12-26T06:49:39.303Z,112.00
2022-12-26T06:50:39.224Z,132.00
2022-12-26T06:51:39.185Z,156.00
2022-12-26T06:52:39.168Z,180.00
2022-12-26T06:53:39.188Z,212.00
2022-12-26T06:54:39.140Z,236.00
2022-12-26T06:55:39.143Z,272.00
2022-12-26T06:56:39.123Z,312.00
2022-12-26T06:57:39.113Z,348.00
2022-12-26T06:58:39.137Z,380.00
2022-12-26T06:59:39.117Z,420.00
2022-12-26T07:00:39.103Z,460.00
2022-12-26T07:01:39.242Z,516.00
2022-12-26T07:02:39.210Z,564.00
2022-12-26T07:03:43.173Z,612.00
2022-12-26T07:04:40.079Z,664.00
2022-12-26T07:05:39.031Z,724.00
2022-12-26T07:06:39.057Z,784.00
2022-12-26T07:07:39.085Z,852.00
2022-12-26T07:08:38.994Z,924.00
2022-12-26T07:09:38.986Z,1000.00
2022-12-26T07:10:39.014Z,1076.00
2022-12-26T07:11:38.961Z,1152.00
2022-12-26T07:12:39.056Z,1220.00
2022-12-26T07:13:38.959Z,1284.00
2022-12-26T07:14:38.923Z,1360.00
2022-12-26T07:15:38.941Z,1448.00
2022-12-26T07:16:39.018Z,1544.00
2022-12-26T07:17:38.908Z,1648.00
2022-12-26T07:18:38.892Z,1764.00
2022-12-26T07:19:38.914Z,1876.00
2022-12-26T07:20:38.861Z,1996.00
2022-12-26T07:21:41.051Z,2112.00
2022-12-26T07:22:38.904Z,2236.00
2022-12-26T07:23:38.851Z,2356.00
2022-12-26T07:24:38.818Z,2464.00
2022-12-26T07:25:38.826Z,2580.00
2022-12-26T07:26:38.801Z,2700.00
2022-12-26T07:27:38.804Z,2820.00
2022-12-26T07:28:38.825Z,2952.00
2022-12-26T07:29:38.765Z,3112.00
2022-12-26T07:30:38.766Z,3288.00
2022-12-26T07:31:38.862Z,3424.00
2022-12-26T07:32:38.736Z,3544.00
2022-12-26T07:33:38.734Z,3624.00
2022-12-26T07:34:38.744Z,3656.00
2022-12-26T07:35:38.701Z,3632.00
2022-12-26T07:36:38.694Z,3580.00
2022-12-26T07:37:38.686Z,3544.00
2022-12-26T07:38:38.678Z,3512.00
2022-12-26T07:39:38.672Z,3512.00
2022-12-26T07:40:38.691Z,3560.00
2022-12-26T07:41:38.671Z,3640.00
2022-12-26T07:42:38.622Z,3744.00
2022-12-26T07:43:38.620Z,3860.00
2022-12-26T07:44:38.612Z,4024.00
2022-12-26T07:45:45.090Z,4212.00
2022-12-26T07:46:39.697Z,4416.00
2022-12-26T07:47:38.590Z,4632.00
2022-12-26T07:48:38.559Z,4876.00
2022-12-26T07:49:38.571Z,5148.00
2022-12-26T07:50:38.541Z,5440.00
2022-12-26T07:51:38.529Z,5748.00
2022-12-26T07:52:38.559Z,6028.00
2022-12-26T07:53:38.509Z,6252.00
2022-12-26T07:54:38.497Z,6392.00
2022-12-26T07:55:38.498Z,6492.00
2022-12-26T07:56:38.499Z,6548.00
2022-12-26T07:57:48.550Z,6540.00
2022-12-26T07:58:39.533Z,6480.00
2022-12-26T07:59:38.489Z,6416.00
2022-12-26T08:00:38.440Z,6372.00
2022-12-26T08:01:38.584Z,6344.00
2022-12-26T08:02:38.672Z,6388.00
2022-12-26T08:03:38.589Z,6500.00
2022-12-26T08:04:38.447Z,6752.00
2022-12-26T08:05:38.390Z,7040.00
2022-12-26T08:06:38.387Z,7176.00
2022-12-26T08:07:38.369Z,7352.00
2022-12-26T08:08:38.346Z,7640.00
2022-12-26T08:09:38.335Z,7864.00
2022-12-26T08:10:38.377Z,8008.00
2022-12-26T08:11:38.337Z,7972.00
2022-12-26T08:12:38.311Z,7812.00
2022-12-26T08:13:38.294Z,7660.00
2022-12-26T08:14:38.277Z,7488.00
2022-12-26T08:15:38.268Z,7340.00
2022-12-26T08:16:38.475Z,7172.00
2022-12-26T08:17:38.259Z,7152.00
2022-12-26T08:18:38.235Z,7180.00
2022-12-26T08:19:38.248Z,7124.00
2022-12-26T08:20:38.214Z,7012.00
2022-12-26T08:21:38.204Z,6956.00
2022-12-26T08:22:38.229Z,7048.00
2022-12-26T08:23:38.183Z,7124.00
2022-12-26T08:24:38.171Z,7084.00
2022-12-26T08:25:38.164Z,6896.00
2022-12-26T08:26:38.149Z,6604.00
2022-12-26T08:27:38.155Z,6248.00
2022-12-26T08:28:38.157Z,5960.00
2022-12-26T08:29:38.124Z,5700.00
2022-12-26T08:30:38.113Z,5576.00
2022-12-26T08:31:38.097Z,5392.00
2022-12-26T08:32:40.974Z,5236.00
2022-12-26T08:33:39.072Z,5172.00
2022-12-26T08:34:38.098Z,5196.00
2022-12-26T08:35:38.076Z,5312.00
2022-12-26T08:36:38.043Z,5432.00
2022-12-26T08:37:38.041Z,5432.00
2022-12-26T08:38:38.029Z,5412.00
2022-12-26T08:39:38.015Z,5420.00
2022-12-26T08:40:44.851Z,5460.00
2022-12-26T08:41:38.990Z,5564.00
2022-12-26T08:42:44.705Z,5796.00
2022-12-26T08:44:24.917Z,6124.00
2022-12-26T08:44:38.955Z,6560.00
2022-12-26T08:45:37.962Z,6944.00
2022-12-26T08:46:37.976Z,7152.00
2022-12-26T08:47:37.924Z,7212.00
2022-12-26T08:48:37.912Z,7320.00
2022-12-26T08:49:37.914Z,7540.00
2022-12-26T08:50:41.470Z,7756.00
2022-12-26T08:51:37.901Z,7896.00
2022-12-26T08:52:37.965Z,7940.00
2022-12-26T08:53:37.861Z,8040.00
2022-12-26T08:54:37.843Z,8300.00
2022-12-26T08:55:37.852Z,8472.00
2022-12-26T08:56:37.835Z,8548.00
2022-12-26T08:57:37.831Z,8768.00
2022-12-26T08:58:37.872Z,8908.00
2022-12-26T08:59:37.799Z,8912.00
2022-12-26T09:00:37.783Z,8744.00
2022-12-26T09:01:37.914Z,8560.00
2022-12-26T09:02:38.057Z,8568.00
2022-12-26T09:03:37.754Z,8756.00
2022-12-26T09:04:37.792Z,8940.00
2022-12-26T09:05:37.728Z,9084.00
2022-12-26T09:06:37.712Z,9044.00
2022-12-26T09:07:37.725Z,8900.00
2022-12-26T09:08:37.711Z,8804.00
2022-12-26T09:09:37.690Z,8596.00
2022-12-26T09:10:37.723Z,8412.00
2022-12-26T09:11:37.686Z,8316.00
2022-12-26T09:12:37.654Z,8224.00
2022-12-26T09:13:37.640Z,8008.00
2022-12-26T09:14:37.625Z,7868.00
2022-12-26T09:15:37.621Z,7860.00
2022-12-26T09:16:40.136Z,7896.00
2022-12-26T09:17:38.595Z,8068.00
2022-12-26T09:18:37.596Z,8292.00
2022-12-26T09:19:37.579Z,8584.00
2022-12-26T09:20:37.586Z,9012.00
2022-12-26T09:21:37.656Z,9500.00
2022-12-26T09:22:37.575Z,9976.00
2022-12-26T09:23:37.573Z,10504.00
2022-12-26T09:24:37.535Z,11032.00
2022-12-26T09:25:37.513Z,11628.00
2022-12-26T09:26:37.546Z,12116.00
2022-12-26T09:27:37.501Z,12544.00
2022-12-26T09:28:37.508Z,12892.00
2022-12-26T09:29:37.468Z,13400.00
2022-12-26T09:30:37.514Z,13872.00
2022-12-26T09:31:37.464Z,14300.00
2022-12-26T09:32:37.433Z,14764.00
2022-12-26T09:33:37.438Z,15152.00
2022-12-26T09:34:37.456Z,15444.00
2022-12-26T09:35:37.404Z,15588.00
2022-12-26T09:36:37.427Z,15684.00
2022-12-26T09:37:37.384Z,15740.00
2022-12-26T09:38:37.389Z,15780.00
2022-12-26T09:39:37.391Z,15764.00
2022-12-26T09:40:37.391Z,15792.00
2022-12-26T09:41:37.342Z,16072.00
2022-12-26T09:42:37.331Z,16252.00
2022-12-26T09:43:37.322Z,16704.00
2022-12-26T09:44:37.315Z,17696.00
2022-12-26T09:45:37.301Z,19104.00
2022-12-26T09:46:37.425Z,22368.00
2022-12-26T09:47:37.272Z,25248.00
2022-12-26T09:48:37.260Z,31520.00
2022-12-26T09:49:37.265Z,27584.00
2022-12-26T09:50:42.680Z,27936.00
2022-12-26T09:51:38.239Z,26208.00
2022-12-26T09:52:37.269Z,24960.00
2022-12-26T09:53:37.208Z,22976.00
2022-12-26T09:54:37.200Z,20000.00
2022-12-26T09:55:37.215Z,29504.00
2022-12-26T09:57:01.718Z,36416.00
2022-12-26T09:57:38.162Z,41376.00
2022-12-26T09:58:37.198Z,42240.00
2022-12-26T09:59:37.157Z,54528.00
2022-12-26T10:00:37.138Z,60480.00
2022-12-26T10:01:37.275Z,52736.00
2022-12-26T10:02:37.160Z,48512.00
2022-12-26T10:03:37.103Z,40736.00
2022-12-26T10:04:37.173Z,59936.00
2022-12-26T10:05:37.104Z,49376.00
2022-12-26T10:06:37.084Z,55840.00
2022-12-26T10:07:37.055Z,65152.00
2022-12-26T10:08:37.049Z,45504.00
2022-12-26T10:09:37.048Z,65440.00
2022-12-26T10:10:37.054Z,65216.00
2022-12-26T10:11:37.045Z,59616.00
2022-12-26T10:12:37.004Z,65504.00
2022-12-26T10:13:36.992Z,66912.00
2022-12-26T10:14:37.012Z,65408.00
2022-12-26T10:15:37.043Z,64256.00
2022-12-26T10:16:36.987Z,61120.00
2022-12-26T10:17:36.947Z,62688.00
2022-12-26T10:18:36.944Z,60032.00
2022-12-26T10:19:36.935Z,70720.00
2022-12-26T10:20:36.918Z,62304.00
2022-12-26T10:21:36.920Z,67616.00
2022-12-26T10:22:36.925Z,63520.00
2022-12-26T10:23:36.895Z,53184.00
2022-12-26T10:24:36.894Z,57760.00
2022-12-26T10:25:36.873Z,58688.00
2022-12-26T10:26:36.865Z,56384.00
2022-12-26T10:27:36.862Z,60000.00
2022-12-26T10:28:36.865Z,53504.00
2022-12-26T10:29:36.824Z,60704.00
2022-12-26T10:30:36.811Z,63840.00
2022-12-26T10:31:36.905Z,58688.00
2022-12-26T10:32:36.788Z,58336.00
2022-12-26T10:33:36.774Z,63808.00
2022-12-26T10:34:36.821Z,61472.00
2022-12-26T10:35:36.754Z,56800.00
2022-12-26T10:36:36.749Z,62208.00
2022-12-26T10:37:36.743Z,55328.00
2022-12-26T10:38:36.727Z,53856.00
2022-12-26T10:39:36.710Z,43712.00
2022-12-26T10:40:36.760Z,51232.00
2022-12-26T10:41:36.691Z,46688.00
2022-12-26T10:42:36.696Z,39488.00
2022-12-26T10:43:36.688Z,43808.00
2022-12-26T10:44:36.660Z,46272.00
2022-12-26T10:45:36.648Z,52704.00
2022-12-26T10:46:36.727Z,55040.00
2022-12-26T10:47:36.648Z,49504.00
2022-12-26T10:48:36.626Z,50400.00
2022-12-26T10:49:36.610Z,50624.00
2022-12-26T10:50:36.595Z,52736.00
2022-12-26T10:51:36.583Z,46464.00
2022-12-26T10:52:36.615Z,56256.00
2022-12-26T10:53:36.559Z,47712.00
2022-12-26T10:54:36.562Z,56128.00
2022-12-26T10:55:36.557Z,39040.00
2022-12-26T10:56:36.527Z,34464.00
2022-12-26T10:57:36.514Z,51008.00
2022-12-26T10:58:36.558Z,51200.00
2022-12-26T10:59:36.546Z,56320.00
2022-12-26T11:00:36.484Z,53536.00
2022-12-26T11:01:36.633Z,66016.00
2022-12-26T11:02:36.708Z,47552.00
2022-12-26T11:03:36.488Z,33024.00
2022-12-26T11:05:02.200Z,35680.00
2022-12-26T11:06:06.552Z,38272.00
2022-12-26T11:06:37.419Z,40128.00
2022-12-26T11:07:36.414Z,32064.00
2022-12-26T11:08:43.351Z,29024.00
2022-12-26T11:09:37.393Z,31296.00
2022-12-26T11:10:36.399Z,61824.00
2022-12-26T11:11:36.359Z,69216.00
2022-12-26T11:12:36.354Z,68832.00
2022-12-26T11:13:36.367Z,60448.00
2022-12-26T11:14:36.350Z,52800.00
2022-12-26T11:15:36.578Z,43232.00
2022-12-26T11:16:36.334Z,30944.00
2022-12-26T11:17:36.297Z,40448.00
2022-12-26T11:18:36.296Z,42304.00
2022-12-26T11:19:36.273Z,55392.00
2022-12-26T11:20:36.265Z,66432.00
2022-12-26T11:21:36.260Z,46848.00
2022-12-26T11:22:36.274Z,49376.00
2022-12-26T11:23:36.242Z,55488.00
2022-12-26T11:24:36.220Z,62560.00
2022-12-26T11:25:36.207Z,66048.00
2022-12-26T11:26:36.206Z,55936.00
2022-12-26T11:27:36.194Z,51872.00
2022-12-26T11:28:36.203Z,62848.00
2022-12-26T11:29:36.168Z,35168.00
2022-12-26T11:30:36.175Z,30816.00
2022-12-26T11:31:36.267Z,44224.00
2022-12-26T11:32:36.135Z,38112.00
2022-12-26T11:33:36.122Z,42400.00
2022-12-26T11:34:36.142Z,25248.00
2022-12-26T11:35:36.101Z,29760.00
2022-12-26T11:36:36.101Z,23328.00
2022-12-26T11:37:36.078Z,22784.00
2022-12-26T11:38:42.572Z,14644.00
2022-12-26T11:39:37.059Z,17536.00
2022-12-26T11:40:36.087Z,31232.00
2022-12-26T11:41:36.059Z,42528.00
2022-12-26T11:42:36.025Z,49216.00
2022-12-26T11:43:36.008Z,49728.00
2022-12-26T11:44:36.017Z,42016.00
2022-12-26T11:45:39.022Z,43104.00
2022-12-26T11:46:36.034Z,49760.00
2022-12-26T11:47:35.988Z,53504.00
2022-12-26T11:48:35.962Z,48416.00
2022-12-26T11:49:35.942Z,36672.00
2022-12-26T11:50:35.935Z,49184.00
2022-12-26T11:51:35.923Z,40448.00
2022-12-26T11:52:35.955Z,47328.00
2022-12-26T11:53:35.912Z,21024.00
2022-12-26T11:54:35.914Z,38656.00
2022-12-26T11:55:35.927Z,48832.00
2022-12-26T11:56:35.873Z,38464.00
2022-12-26T11:57:35.854Z,40352.00
2022-12-26T11:58:35.915Z,35136.00
2022-12-26T11:59:35.837Z,45280.00
2022-12-26T12:00:35.826Z,32480.00
2022-12-26T12:01:35.989Z,16800.00
2022-12-26T12:02:35.906Z,14956.00
2022-12-26T12:03:35.887Z,21984.00
2022-12-26T12:04:35.806Z,25376.00
2022-12-26T12:05:35.775Z,30816.00
2022-12-26T12:06:35.765Z,28736.00
2022-12-26T12:07:35.747Z,36064.00
2022-12-26T12:08:35.742Z,20992.00
2022-12-26T12:09:35.735Z,14620.00
2022-12-26T12:10:35.735Z,17184.00
2022-12-26T12:11:35.711Z,17120.00
2022-12-26T12:12:35.694Z,23104.00
2022-12-26T12:13:35.679Z,24096.00
2022-12-26T12:14:35.687Z,29856.00
2022-12-26T12:15:35.658Z,28128.00
2022-12-26T12:16:35.787Z,24800.00
2022-12-26T12:17:35.647Z,31104.00
2022-12-26T12:18:35.644Z,19616.00
2022-12-26T12:19:35.632Z,24608.00
2022-12-26T12:20:35.606Z,18368.00
2022-12-26T12:21:35.588Z,18240.00
2022-12-26T12:22:35.599Z,15704.00
2022-12-26T12:23:35.624Z,20864.00
2022-12-26T12:24:35.580Z,32832.00
2022-12-26T12:25:35.568Z,31040.00
2022-12-26T12:26:35.585Z,26496.00
2022-12-26T12:27:35.581Z,21504.00
2022-12-26T12:28:35.586Z,21248.00
2022-12-26T12:29:35.584Z,14540.00
2022-12-26T12:30:35.497Z,22464.00
2022-12-26T12:31:35.562Z,21152.00
2022-12-26T12:32:35.476Z,18816.00
2022-12-26T12:33:35.461Z,27872.00
2022-12-26T12:34:35.479Z,21600.00
2022-12-26T12:35:35.467Z,18848.00
2022-12-26T12:36:35.450Z,26464.00
2022-12-26T12:37:35.429Z,32576.00